createdAt,value
2023-03-17T00:00:00.596Z,100213.48
2023-03-17T00:03:05.262Z,100222.14
2023-03-17T00:06:16.782Z,100226.88
2023-03-17T00:09:21.068Z,100219.98
2023-03-17T00:12:24.914Z,100212.77
2023-03-17T00:15:28.096Z,100202.60
2023-03-17T00:18:31.794Z,100202.09
2023-03-17T00:21:35.811Z,100204.99
2023-03-17T00:24:38.653Z,100199.54
2023-03-17T00:27:41.315Z,100206.44
2023-03-17T00:30:44.844Z,100206.84
2023-03-17T00:33:49.888Z,100203.88
2023-03-17T00:36:52.624Z,100192.55
2023-03-17T00:39:56.313Z,100184.69
2023-03-17T00:43:03.333Z,100186.30
2023-03-17T00:46:14.768Z,100191.18
2023-03-17T00:49:21.274Z,100190.33
2023-03-17T00:52:24.228Z,100187.61
2023-03-17T00:55:27.194Z,100185.15
2023-03-17T00:58:32.919Z,100174.67
2023-03-17T01:01:39.825Z,100169.40
2023-03-17T01:04:49.923Z,100164.71
2023-03-17T01:07:57.514Z,100152.40
2023-03-17T01:11:00.610Z,100148.05
2023-03-17T01:14:03.563Z,100141.49
2023-03-17T01:17:27.902Z,100142.20
2023-03-17T01:20:33.016Z,100135.66
2023-03-17T01:23:35.776Z,100134.58
2023-03-17T01:26:39.079Z,100128.10
2023-03-17T01:29:45.380Z,100124.81
2023-03-17T01:32:48.267Z,100116.35
2023-03-17T01:35:51.394Z,100112.58
2023-03-17T01:38:54.155Z,100112.23
2023-03-17T01:42:01.587Z,100115.95
2023-03-17T01:45:28.598Z,100118.15
2023-03-17T01:48:37.338Z,100120.00
2023-03-17T01:51:51.462Z,100114.45
2023-03-17T01:55:03.190Z,100108.38
2023-03-17T01:58:07.261Z,100103.70
2023-03-17T02:01:10.923Z,100101.80
2023-03-17T02:04:40.769Z,100103.95
2023-03-17T02:07:45.244Z,100098.52
2023-03-17T02:10:50.460Z,100095.86
2023-03-17T02:13:53.636Z,100100.30
2023-03-17T02:16:57.439Z,100100.17
2023-03-17T02:20:17.373Z,100096.02
2023-03-17T02:23:23.448Z,100088.39
2023-03-17T02:26:28.483Z,100091.83
2023-03-17T02:29:34.146Z,100092.79
2023-03-17T02:32:37.783Z,100096.29
2023-03-17T02:35:41.521Z,100088.21
2023-03-17T02:38:44.226Z,100077.93
2023-03-17T02:41:47.106Z,100078.82
2023-03-17T02:44:50.693Z,100074.70
2023-03-17T02:47:55.043Z,100063.67
2023-03-17T02:50:57.746Z,100060.13
2023-03-17T02:54:00.749Z,100051.47
2023-03-17T02:57:03.913Z,100053.45
2023-03-17T03:00:10.450Z,100066.20
2023-03-17T03:03:13.514Z,100061.37
2023-03-17T03:06:17.023Z,100065.37
2023-03-17T03:09:20.935Z,100062.23
2023-03-17T03:12:23.704Z,100064.00
2023-03-17T03:15:26.363Z,100068.84
2023-03-17T03:18:29.128Z,100063.77
2023-03-17T03:21:32.248Z,100065.20
2023-03-17T03:24:35.554Z,100066.30
2023-03-17T03:27:38.867Z,100059.17
2023-03-17T03:30:41.814Z,100055.45
2023-03-17T03:33:44.652Z,100052.53
2023-03-17T03:36:47.394Z,100045.98
2023-03-17T03:39:50.100Z,100045.16
2023-03-17T03:42:52.972Z,100049.02
2023-03-17T03:45:55.798Z,100042.23
2023-03-17T03:48:58.477Z,100038.75
2023-03-17T03:52:04.735Z,100031.95
2023-03-17T03:55:09.060Z,100039.95
2023-03-17T03:58:11.724Z,100041.38
2023-03-17T04:01:14.552Z,100032.86
2023-03-17T04:04:17.307Z,100030.94
2023-03-17T04:07:21.431Z,100016.30
2023-03-17T04:10:24.218Z,100011.64
2023-03-17T04:13:27.416Z,100016.35
2023-03-17T04:16:30.168Z,100013.19
2023-03-17T04:19:32.922Z,100020.05
2023-03-17T04:22:35.561Z,100017.65
2023-03-17T04:25:38.390Z,100017.88
2023-03-17T04:28:41.113Z,100026.91
2023-03-17T04:31:43.876Z,100026.20
2023-03-17T04:34:46.547Z,100014.73
2023-03-17T04:37:50.080Z,100014.05
2023-03-17T04:40:52.712Z,100014.05
2023-03-17T04:43:55.385Z,100012.64
2023-03-17T04:47:03.501Z,100007.59
2023-03-17T04:50:09.006Z,100016.29
2023-03-17T04:53:11.643Z,100017.02
2023-03-17T04:56:14.621Z,100018.13
2023-03-17T04:59:17.344Z,100019.01
2023-03-17T05:02:20.094Z,100020.61
2023-03-17T05:05:22.832Z,100024.98
2023-03-17T05:08:28.381Z,100025.59
2023-03-17T05:11:32.343Z,100022.31
2023-03-17T05:14:35.091Z,100026.46
2023-03-17T05:17:38.522Z,100027.80
2023-03-17T05:20:41.503Z,100024.88
2023-03-17T05:23:44.259Z,100020.16
2023-03-17T05:26:46.952Z,100022.66
2023-03-17T05:29:49.840Z,100024.23
2023-03-17T05:32:52.670Z,100021.92
2023-03-17T05:35:55.366Z,100024.69
2023-03-17T05:38:58.557Z,100026.65
2023-03-17T05:42:01.270Z,100027.65
2023-03-17T05:45:05.765Z,100027.55
2023-03-17T05:48:08.603Z,100026.77
2023-03-17T05:51:11.502Z,100023.08
2023-03-17T05:54:14.257Z,100026.33
2023-03-17T05:57:17.048Z,100024.55
2023-03-17T06:00:21.750Z,100020.30
2023-03-17T06:03:24.614Z,100018.88
2023-03-17T06:06:27.961Z,100013.60
2023-03-17T06:09:31.490Z,100011.44
2023-03-17T06:12:34.568Z,100000.52
2023-03-17T06:15:38.072Z,99993.05
2023-03-17T06:18:41.239Z,99987.52
2023-03-17T06:21:43.961Z,99990.16
2023-03-17T06:24:46.588Z,99986.89
2023-03-17T06:27:53.214Z,99988.39
2023-03-17T06:30:56.338Z,99988.39
2023-03-17T06:33:59.055Z,99988.90
2023-03-17T06:37:01.759Z,99982.75
2023-03-17T06:40:09.141Z,99979.21
2023-03-17T06:43:12.363Z,99975.45
2023-03-17T06:46:15.159Z,99973.25
2023-03-17T06:49:18.058Z,99989.48
2023-03-17T06:52:20.914Z,100003.92
2023-03-17T06:55:23.640Z,100012.69
2023-03-17T06:58:26.484Z,100013.77
2023-03-17T07:01:29.204Z,100014.80
2023-03-17T07:04:32.062Z,100013.56
2023-03-17T07:07:35.851Z,100008.71
2023-03-17T07:10:41.258Z,100008.59
2023-03-17T07:13:45.348Z,100010.79
2023-03-17T07:16:48.612Z,100007.14
2023-03-17T07:19:52.530Z,100003.88
2023-03-17T07:22:55.210Z,99999.99
2023-03-17T07:25:58.100Z,100001.02
2023-03-17T07:29:01.450Z,100002.16
2023-03-17T07:32:06.543Z,100004.15
2023-03-17T07:35:09.312Z,100002.39
2023-03-17T07:38:12.150Z,100003.44
2023-03-17T07:41:14.889Z,99997.52
2023-03-17T07:44:17.584Z,99989.48
2023-03-17T07:47:20.606Z,99986.57
2023-03-17T07:50:23.578Z,99989.74
2023-03-17T07:53:26.512Z,99993.16
2023-03-17T07:56:31.133Z,99995.70
2023-03-17T07:59:34.317Z,99995.02
2023-03-17T08:02:37.601Z,100001.16
2023-03-17T08:05:41.172Z,99995.34
2023-03-17T08:08:43.966Z,99998.49
2023-03-17T08:11:46.946Z,100004.09
2023-03-17T08:14:50.672Z,100004.52
2023-03-17T08:17:54.308Z,100011.73
2023-03-17T08:20:57.171Z,100011.75
2023-03-17T08:24:01.298Z,100016.98
2023-03-17T08:27:04.260Z,100012.33
2023-03-17T08:30:07.881Z,100018.77
2023-03-17T08:33:11.138Z,100016.79
2023-03-17T08:36:14.500Z,100007.17
2023-03-17T08:39:17.560Z,99985.38
2023-03-17T08:42:29.368Z,99954.74
2023-03-17T08:45:32.740Z,99951.34
2023-03-17T08:48:37.389Z,99962.27
2023-03-17T08:51:40.944Z,99949.16
2023-03-17T08:54:43.869Z,99938.34
2023-03-17T08:57:46.546Z,99928.63
2023-03-17T09:00:49.608Z,99916.48
2023-03-17T09:03:54.842Z,99922.95
2023-03-17T09:07:06.189Z,99921.84
2023-03-17T09:10:11.054Z,99923.14
2023-03-17T09:13:14.107Z,99934.84
2023-03-17T09:16:18.281Z,99938.58
2023-03-17T09:19:21.967Z,99932.88
2023-03-17T09:22:24.669Z,99932.54
2023-03-17T09:25:27.589Z,99939.11
2023-03-17T09:28:30.277Z,99947.77
2023-03-17T09:31:33.932Z,99944.44
2023-03-17T09:34:36.905Z,99935.55
2023-03-17T09:37:39.750Z,99912.79
2023-03-17T09:40:49.410Z,99896.21
2023-03-17T09:44:03.170Z,99884.65
2023-03-17T09:47:36.131Z,99882.01
2023-03-17T09:51:01.905Z,99883.00
2023-03-17T09:54:11.246Z,99874.91
2023-03-17T09:57:32.538Z,99877.69
2023-03-17T10:00:35.784Z,99884.91
2023-03-17T10:03:39.080Z,99878.52
2023-03-17T10:06:46.704Z,99885.86
2023-03-17T10:10:03.140Z,99894.29
2023-03-17T10:13:51.135Z,99884.16
2023-03-17T10:16:57.772Z,99881.33
2023-03-17T10:20:14.469Z,99875.33
2023-03-17T10:23:21.860Z,99864.15
2023-03-17T10:26:39.854Z,99860.78
2023-03-17T10:29:43.008Z,99861.40
2023-03-17T10:32:46.899Z,99859.90
2023-03-17T10:35:49.824Z,99857.73
2023-03-17T10:38:54.467Z,99856.64
2023-03-17T10:42:15.609Z,99850.98
2023-03-17T10:45:27.889Z,99850.28
2023-03-17T10:48:35.975Z,99852.06
2023-03-17T10:51:40.751Z,99853.55
2023-03-17T10:54:48.490Z,99847.79
2023-03-17T10:58:07.945Z,99846.34
2023-03-17T11:01:21.859Z,99847.44
2023-03-17T11:04:33.770Z,99838.60
2023-03-17T11:07:40.507Z,99841.75
2023-03-17T11:10:44.464Z,99840.87
2023-03-17T11:13:48.272Z,99839.92
2023-03-17T11:16:56.948Z,99833.63
2023-03-17T11:20:11.606Z,99829.87
2023-03-17T11:23:37.752Z,99829.34
2023-03-17T11:26:45.296Z,99824.63
2023-03-17T11:29:58.358Z,99818.02
2023-03-17T11:33:12.210Z,99815.49
2023-03-17T11:36:43.475Z,99816.80
2023-03-17T11:40:01.156Z,99807.00
2023-03-17T11:43:19.253Z,99810.89
2023-03-17T11:46:42.361Z,99796.84
2023-03-17T11:49:59.081Z,99791.95
2023-03-17T11:53:17.179Z,99791.94
2023-03-17T11:56:50.661Z,99792.08
2023-03-17T12:00:22.803Z,99792.79
2023-03-17T12:03:40.260Z,99789.09
2023-03-17T12:06:50.752Z,99784.92
2023-03-17T12:10:16.385Z,99781.70
2023-03-17T12:13:29.423Z,99774.49
2023-03-17T12:16:37.332Z,99772.27
2023-03-17T12:19:46.498Z,99771.08
2023-03-17T12:22:57.146Z,99772.70
2023-03-17T12:26:08.169Z,99771.23
2023-03-17T12:29:37.838Z,99762.88
2023-03-17T12:32:46.790Z,99768.11
2023-03-17T12:35:49.600Z,99764.07
2023-03-17T12:39:02.559Z,99761.86
2023-03-17T12:42:26.610Z,99760.17
2023-03-17T12:45:32.670Z,99757.14
2023-03-17T12:49:24.424Z,99756.84
2023-03-17T12:52:37.688Z,99748.35
2023-03-17T12:55:50.447Z,99752.48
2023-03-17T12:58:58.756Z,99753.62
2023-03-17T13:02:35.669Z,99751.02
2023-03-17T13:05:38.662Z,99754.77
2023-03-17T13:08:42.253Z,99758.38
2023-03-17T13:11:48.618Z,99757.24
2023-03-17T13:14:52.128Z,99749.55
2023-03-17T13:18:16.249Z,99744.13
2023-03-17T13:21:22.766Z,99743.92
2023-03-17T13:24:36.622Z,99743.66
2023-03-17T13:27:39.256Z,99739.20
2023-03-17T13:31:02.403Z,99732.63
2023-03-17T13:34:18.443Z,99728.04
2023-03-17T13:37:27.369Z,99718.73
2023-03-17T13:40:30.414Z,99718.20
2023-03-17T13:43:44.125Z,99714.34
2023-03-17T13:46:48.328Z,99709.41
2023-03-17T13:49:58.136Z,99702.80
2023-03-17T13:53:05.013Z,99703.02
2023-03-17T13:56:46.927Z,99698.14
2023-03-17T14:00:05.685Z,99694.67
2023-03-17T14:03:30.885Z,99690.36
2023-03-17T14:06:37.946Z,99688.33
2023-03-17T14:09:42.422Z,99681.80
2023-03-17T14:12:58.125Z,99682.72
2023-03-17T14:16:05.337Z,99685.30
2023-03-17T14:19:20.237Z,99678.02
2023-03-17T14:22:24.916Z,99676.47
2023-03-17T14:25:35.712Z,99669.95
2023-03-17T14:28:48.094Z,99667.97
2023-03-17T14:32:04.479Z,99664.79
2023-03-17T14:35:13.451Z,99665.44
2023-03-17T14:38:19.992Z,99663.66
2023-03-17T14:41:27.128Z,99661.50
2023-03-17T14:45:04.653Z,99664.34
2023-03-17T14:48:15.574Z,99661.54
2023-03-17T14:51:39.622Z,99659.07
2023-03-17T14:54:42.430Z,99654.99
2023-03-17T14:57:52.834Z,99655.99
2023-03-17T15:01:02.426Z,99646.50
2023-03-17T15:04:15.812Z,99639.65
2023-03-17T15:07:40.466Z,99642.37
2023-03-17T15:10:43.800Z,99646.14
2023-03-17T15:13:47.523Z,99646.30
2023-03-17T15:16:52.740Z,99642.66
2023-03-17T15:20:00.074Z,99639.36
2023-03-17T15:23:14.826Z,99637.63
2023-03-17T15:26:33.115Z,99633.02
2023-03-17T15:29:35.857Z,99627.35
2023-03-17T15:32:40.171Z,99625.55
2023-03-17T15:35:42.981Z,99625.17
2023-03-17T15:38:45.775Z,99622.28
2023-03-17T15:41:48.545Z,99621.46
2023-03-17T15:44:52.487Z,99616.01
2023-03-17T15:47:55.792Z,99613.43
2023-03-17T15:51:00.285Z,99613.80
2023-03-17T15:54:03.267Z,99607.49
2023-03-17T15:57:06.323Z,99606.76
2023-03-17T16:00:14.983Z,99602.84
2023-03-17T16:03:34.961Z,99601.39
2023-03-17T16:06:37.680Z,99604.71
2023-03-17T16:09:40.342Z,99597.23
2023-03-17T16:12:46.141Z,99598.51
2023-03-17T16:15:57.661Z,99590.40
2023-03-17T16:19:00.836Z,99591.52
2023-03-17T16:22:03.565Z,99593.73
2023-03-17T16:25:19.133Z,99591.42
2023-03-17T16:28:27.565Z,99586.69
2023-03-17T16:31:30.903Z,99586.77
2023-03-17T16:34:33.642Z,99587.98
2023-03-17T16:37:36.374Z,99582.89
2023-03-17T16:40:39.619Z,99580.69
2023-03-17T16:43:44.373Z,99582.21
2023-03-17T16:46:47.900Z,99579.15
2023-03-17T16:49:50.607Z,99584.79
2023-03-17T16:52:54.324Z,99587.01
2023-03-17T16:55:57.180Z,99580.80
2023-03-17T16:59:00.399Z,99580.73
2023-03-17T17:02:03.228Z,99575.90
2023-03-17T17:05:21.614Z,99574.89
2023-03-17T17:08:24.462Z,99565.08
2023-03-17T17:11:27.160Z,99563.09
2023-03-17T17:14:29.835Z,99561.35
2023-03-17T17:17:38.443Z,99556.00
2023-03-17T17:20:42.335Z,99551.41
2023-03-17T17:23:45.950Z,99546.43
2023-03-17T17:26:48.745Z,99552.98
2023-03-17T17:29:51.483Z,99560.50
2023-03-17T17:32:57.167Z,99559.17
2023-03-17T17:36:00.457Z,99556.75
2023-03-17T17:39:03.723Z,99562.31
2023-03-17T17:42:06.705Z,99560.97
2023-03-17T17:45:10.271Z,99563.00
2023-03-17T17:48:13.021Z,99560.95
2023-03-17T17:51:15.875Z,99561.84
2023-03-17T17:54:18.632Z,99562.77
2023-03-17T17:57:21.351Z,99567.05
2023-03-17T18:00:25.876Z,99570.16
2023-03-17T18:03:29.735Z,99568.08
2023-03-17T18:06:33.743Z,99564.46
2023-03-17T18:09:36.549Z,99569.57
2023-03-17T18:12:39.334Z,99572.79
2023-03-17T18:15:42.651Z,99575.96
2023-03-17T18:18:47.247Z,99580.70
2023-03-17T18:21:50.170Z,99586.83
2023-03-17T18:25:18.213Z,99587.84
2023-03-17T18:28:21.274Z,99587.16
2023-03-17T18:31:29.273Z,99586.13
2023-03-17T18:34:37.849Z,99586.18
2023-03-17T18:37:41.234Z,99585.86
2023-03-17T18:40:46.578Z,99584.15
2023-03-17T18:43:49.286Z,99586.37
2023-03-17T18:46:52.170Z,99586.13
2023-03-17T18:49:58.246Z,99589.10
2023-03-17T18:53:01.075Z,99586.82
2023-03-17T18:56:03.972Z,99581.77
2023-03-17T18:59:06.770Z,99580.56
2023-03-17T19:02:09.416Z,99579.14
2023-03-17T19:05:12.948Z,99580.87
2023-03-17T19:08:16.759Z,99568.77
2023-03-17T19:11:21.731Z,99563.81
2023-03-17T19:14:24.519Z,99559.13
2023-03-17T19:17:37.336Z,99562.45
2023-03-17T19:20:40.141Z,99559.70
2023-03-17T19:23:43.255Z,99559.00
2023-03-17T19:26:46.617Z,99554.00
2023-03-17T19:29:49.407Z,99550.63
2023-03-17T19:32:52.141Z,99545.45
2023-03-17T19:35:57.262Z,99541.23
2023-03-17T19:38:59.962Z,99540.15
2023-03-17T19:42:02.713Z,99537.73
2023-03-17T19:45:06.123Z,99539.02
2023-03-17T19:48:15.739Z,99540.23
2023-03-17T19:51:18.469Z,99536.25
2023-03-17T19:54:23.395Z,99536.36
2023-03-17T19:57:27.306Z,99533.77
2023-03-17T20:00:30.265Z,99532.07
2023-03-17T20:03:35.448Z,99528.10
2023-03-17T20:06:40.098Z,99529.90
2023-03-17T20:09:48.030Z,99539.91
2023-03-17T20:12:50.803Z,99538.30
2023-03-17T20:15:55.394Z,99534.92
2023-03-17T20:19:01.487Z,99530.55
2023-03-17T20:22:04.258Z,99527.87
2023-03-17T20:25:09.178Z,99524.58
2023-03-17T20:28:12.979Z,99520.43
2023-03-17T20:31:16.243Z,99519.66
2023-03-17T20:34:20.298Z,99520.46
2023-03-17T20:37:24.823Z,99518.09
2023-03-17T20:40:27.692Z,99518.23
2023-03-17T20:43:34.265Z,99515.83
2023-03-17T20:46:42.621Z,99515.88
2023-03-17T20:49:47.711Z,99514.58
2023-03-17T20:52:51.362Z,99508.41
2023-03-17T20:55:55.357Z,99506.69
2023-03-17T20:59:01.305Z,99506.17
2023-03-17T21:02:05.006Z,99503.67
2023-03-17T21:05:13.756Z,99506.09
2023-03-17T21:08:17.210Z,99497.98
2023-03-17T21:11:23.105Z,99497.96
2023-03-17T21:14:26.162Z,99498.23
2023-03-17T21:17:30.899Z,99495.55
2023-03-17T21:20:38.438Z,99503.71
2023-03-17T21:23:41.852Z,99506.43
2023-03-17T21:26:45.640Z,99503.34
2023-03-17T21:29:51.443Z,99505.30
2023-03-17T21:32:57.548Z,99506.99
2023-03-17T21:36:02.874Z,99508.70
2023-03-17T21:39:06.004Z,99515.84
2023-03-17T21:42:09.787Z,99513.13
2023-03-17T21:45:12.801Z,99516.15
2023-03-17T21:48:15.771Z,99515.66
2023-03-17T21:51:18.906Z,99522.15
2023-03-17T21:54:21.844Z,99522.64
2023-03-17T21:57:27.898Z,99520.20
2023-03-17T22:00:39.405Z,99518.85
2023-03-17T22:03:49.021Z,99518.96
2023-03-17T22:06:52.430Z,99503.11
2023-03-17T22:09:57.141Z,99510.33
2023-03-17T22:13:00.778Z,99510.39
2023-03-17T22:16:04.587Z,99513.48
2023-03-17T22:19:10.063Z,99510.56
2023-03-17T22:22:12.752Z,99511.38
2023-03-17T22:25:15.472Z,99505.05
2023-03-17T22:28:19.898Z,99498.67
2023-03-17T22:31:26.415Z,99506.45
2023-03-17T22:34:29.673Z,99509.39
2023-03-17T22:37:32.605Z,99516.48
2023-03-17T22:40:38.790Z,99512.21
2023-03-17T22:43:42.807Z,99502.91
2023-03-17T22:46:45.567Z,99501.83
2023-03-17T22:49:49.130Z,99497.92
2023-03-17T22:52:51.935Z,99494.31
2023-03-17T22:55:54.795Z,99499.55
2023-03-17T22:58:57.466Z,99500.48
2023-03-17T23:02:00.243Z,99502.80
2023-03-17T23:05:02.957Z,99506.45
2023-03-17T23:08:05.727Z,99510.96
2023-03-17T23:11:12.441Z,99515.00
2023-03-17T23:14:15.462Z,99519.86
2023-03-17T23:17:18.106Z,99522.13
2023-03-17T23:20:27.085Z,99519.88
2023-03-17T23:23:30.424Z,99522.06
2023-03-17T23:26:36.107Z,99525.23
2023-03-17T23:29:38.783Z,99520.75
2023-03-17T23:32:42.940Z,99520.08
2023-03-17T23:35:46.322Z,99511.72
2023-03-17T23:38:50.316Z,99506.69
2023-03-17T23:41:52.980Z,99503.14
2023-03-17T23:44:58.169Z,99500.06
2023-03-17T23:48:01.065Z,99498.71
2023-03-17T23:51:03.951Z,99494.17
2023-03-17T23:54:11.280Z,99491.50
2023-03-17T23:57:14.654Z,99494.91
